sensor_id;sensor_type;location;lat;lon;timestamp;P1;durP1;ratioP1;P2;durP2;ratioP2
17648;SDS011;8943;51.110;-4.158;2023-02-18T00:01:38;9.53;;;2.03;;
17648;SDS011;8943;51.110;-4.158;2023-02-18T00:04:08;13.07;;;2.47;;
17648;SDS011;8943;51.110;-4.158;2023-02-18T00:06:36;11.43;;;2.03;;
17648;SDS011;8943;51.110;-4.158;2023-02-18T00:09:04;12.33;;;1.83;;
17648;SDS011;8943;51.110;-4.158;2023-02-18T00:11:35;12.00;;;2.57;;
17648;SDS011;8943;51.110;-4.158;2023-02-18T00:14:06;31.97;;;2.70;;
17648;SDS011;8943;51.110;-4.158;2023-02-18T00:16:35;11.93;;;2.27;;
17648;SDS011;8943;51.110;-4.158;2023-02-18T00:19:04;13.17;;;2.47;;
17648;SDS011;8943;51.110;-4.158;2023-02-18T00:21:34;21.63;;;3.90;;
17648;SDS011;8943;51.110;-4.158;2023-02-18T00:24:04;6.90;;;1.60;;
17648;SDS011;8943;51.110;-4.158;2023-02-18T00:26:33;8.10;;;1.90;;
17648;SDS011;8943;51.110;-4.158;2023-02-18T00:29:06;8.77;;;2.17;;
17648;SDS011;8943;51.110;-4.158;2023-02-18T00:31:37;9.23;;;2.17;;
17648;SDS011;8943;51.110;-4.158;2023-02-18T00:34:06;11.83;;;2.10;;
17648;SDS011;8943;51.110;-4.158;2023-02-18T00:36:35;5.73;;;1.30;;
17648;SDS011;8943;51.110;-4.158;2023-02-18T00:39:04;5.63;;;1.33;;
17648;SDS011;8943;51.110;-4.158;2023-02-18T00:41:35;8.00;;;1.70;;
17648;SDS011;8943;51.110;-4.158;2023-02-18T00:44:05;9.87;;;2.00;;
17648;SDS011;8943;51.110;-4.158;2023-02-18T00:46:34;10.20;;;2.00;;
17648;SDS011;8943;51.110;-4.158;2023-02-18T00:49:03;13.53;;;2.40;;
17648;SDS011;8943;51.110;-4.158;2023-02-18T00:51:32;16.70;;;2.93;;
17648;SDS011;8943;51.110;-4.158;2023-02-18T00:54:01;23.47;;;3.57;;
17648;SDS011;8943;51.110;-4.158;2023-02-18T00:56:29;15.70;;;2.97;;
17648;SDS011;8943;51.110;-4.158;2023-02-18T00:58:57;12.63;;;2.77;;
17648;SDS011;8943;51.110;-4.158;2023-02-18T01:01:27;8.10;;;1.83;;
17648;SDS011;8943;51.110;-4.158;2023-02-18T01:03:55;11.30;;;1.87;;
17648;SDS011;8943;51.110;-4.158;2023-02-18T01:06:23;6.40;;;1.67;;
17648;SDS011;8943;51.110;-4.158;2023-02-18T01:08:51;11.73;;;1.87;;
17648;SDS011;8943;51.110;-4.158;2023-02-18T01:11:19;10.43;;;2.57;;
17648;SDS011;8943;51.110;-4.158;2023-02-18T01:13:47;16.17;;;2.37;;
17648;SDS011;8943;51.110;-4.158;2023-02-18T01:16:15;8.77;;;2.10;;
17648;SDS011;8943;51.110;-4.158;2023-02-18T01:18:45;9.63;;;1.67;;
17648;SDS011;8943;51.110;-4.158;2023-02-18T01:21:14;8.73;;;0.97;;
17648;SDS011;8943;51.110;-4.158;2023-02-18T01:23:42;8.27;;;1.70;;
17648;SDS011;8943;51.110;-4.158;2023-02-18T01:26:11;8.00;;;1.63;;
17648;SDS011;8943;51.110;-4.158;2023-02-18T01:28:39;10.80;;;1.97;;
17648;SDS011;8943;51.110;-4.158;2023-02-18T01:31:08;8.80;;;2.03;;
17648;SDS011;8943;51.110;-4.158;2023-02-18T01:33:40;7.73;;;1.70;;
17648;SDS011;8943;51.110;-4.158;2023-02-18T01:36:10;9.47;;;2.13;;
17648;SDS011;8943;51.110;-4.158;2023-02-18T01:38:38;11.73;;;2.20;;
17648;SDS011;8943;51.110;-4.158;2023-02-18T01:41:07;4.93;;;1.50;;
17648;SDS011;8943;51.110;-4.158;2023-02-18T01:43:36;9.47;;;1.87;;
17648;SDS011;8943;51.110;-4.158;2023-02-18T01:46:06;6.83;;;1.90;;
17648;SDS011;8943;51.110;-4.158;2023-02-18T01:48:40;7.63;;;1.57;;
17648;SDS011;8943;51.110;-4.158;2023-02-18T01:51:14;4.67;;;1.20;;
17648;SDS011;8943;51.110;-4.158;2023-02-18T01:53:46;7.93;;;1.63;;
17648;SDS011;8943;51.110;-4.158;2023-02-18T01:56:21;7.73;;;1.43;;
17648;SDS011;8943;51.110;-4.158;2023-02-18T01:58:52;9.37;;;1.60;;
17648;SDS011;8943;51.110;-4.158;2023-02-18T02:01:23;8.77;;;1.13;;
17648;SDS011;8943;51.110;-4.158;2023-02-18T02:03:53;5.43;;;1.43;;
17648;SDS011;8943;51.110;-4.158;2023-02-18T02:06:23;9.00;;;2.20;;
17648;SDS011;8943;51.110;-4.158;2023-02-18T02:08:53;8.27;;;1.60;;
17648;SDS011;8943;51.110;-4.158;2023-02-18T02:11:38;6.23;;;1.63;;
17648;SDS011;8943;51.110;-4.158;2023-02-18T02:14:17;6.40;;;1.87;;
17648;SDS011;8943;51.110;-4.158;2023-02-18T02:16:53;10.60;;;2.00;;
17648;SDS011;8943;51.110;-4.158;2023-02-18T02:22:48;10.37;;;1.70;;
17648;SDS011;8943;51.110;-4.158;2023-02-18T02:25:34;12.07;;;1.90;;
17648;SDS011;8943;51.110;-4.158;2023-02-18T02:31:32;6.90;;;2.00;;
17648;SDS011;8943;51.110;-4.158;2023-02-18T02:34:27;12.77;;;2.40;;
17648;SDS011;8943;51.110;-4.158;2023-02-18T02:37:10;13.73;;;2.40;;
17648;SDS011;8943;51.110;-4.158;2023-02-18T02:39:45;9.47;;;2.13;;
17648;SDS011;8943;51.110;-4.158;2023-02-18T02:42:24;7.20;;;1.93;;
17648;SDS011;8943;51.110;-4.158;2023-02-18T02:44:58;9.93;;;2.30;;
17648;SDS011;8943;51.110;-4.158;2023-02-18T02:47:35;14.77;;;2.90;;
17648;SDS011;8943;51.110;-4.158;2023-02-18T02:50:12;15.17;;;2.27;;
17648;SDS011;8943;51.110;-4.158;2023-02-18T02:52:44;10.37;;;1.90;;
17648;SDS011;8943;51.110;-4.158;2023-02-18T02:55:17;5.63;;;1.97;;
17648;SDS011;8943;51.110;-4.158;2023-02-18T02:57:46;12.67;;;2.13;;
17648;SDS011;8943;51.110;-4.158;2023-02-18T03:00:17;12.03;;;2.13;;
17648;SDS011;8943;51.110;-4.158;2023-02-18T03:02:58;5.93;;;1.60;;
17648;SDS011;8943;51.110;-4.158;2023-02-18T03:05:49;14.33;;;2.43;;
17648;SDS011;8943;51.110;-4.158;2023-02-18T03:08:36;9.80;;;2.40;;
17648;SDS011;8943;51.110;-4.158;2023-02-18T03:11:14;11.00;;;2.00;;
17648;SDS011;8943;51.110;-4.158;2023-02-18T03:13:48;13.03;;;2.73;;
17648;SDS011;8943;51.110;-4.158;2023-02-18T03:16:25;10.73;;;1.97;;
17648;SDS011;8943;51.110;-4.158;2023-02-18T03:18:56;15.20;;;2.90;;
17648;SDS011;8943;51.110;-4.158;2023-02-18T03:21:34;17.47;;;3.23;;
17648;SDS011;8943;51.110;-4.158;2023-02-18T03:24:08;8.53;;;1.53;;
17648;SDS011;8943;51.110;-4.158;2023-02-18T03:26:41;8.50;;;1.90;;
17648;SDS011;8943;51.110;-4.158;2023-02-18T03:29:13;13.37;;;2.53;;
17648;SDS011;8943;51.110;-4.158;2023-02-18T03:31:44;13.57;;;2.43;;
17648;SDS011;8943;51.110;-4.158;2023-02-18T03:34:16;11.87;;;2.43;;
17648;SDS011;8943;51.110;-4.158;2023-02-18T03:36:50;9.37;;;1.90;;
17648;SDS011;8943;51.110;-4.158;2023-02-18T03:39:20;15.37;;;2.80;;
17648;SDS011;8943;51.110;-4.158;2023-02-18T03:41:51;7.90;;;2.03;;
17648;SDS011;8943;51.110;-4.158;2023-02-18T03:44:19;7.53;;;1.70;;
17648;SDS011;8943;51.110;-4.158;2023-02-18T03:46:48;9.00;;;2.33;;
17648;SDS011;8943;51.110;-4.158;2023-02-18T03:49:16;11.80;;;2.07;;
17648;SDS011;8943;51.110;-4.158;2023-02-18T03:51:44;19.50;;;3.27;;
17648;SDS011;8943;51.110;-4.158;2023-02-18T03:54:14;17.83;;;3.33;;
17648;SDS011;8943;51.110;-4.158;2023-02-18T03:56:42;14.77;;;3.17;;
17648;SDS011;8943;51.110;-4.158;2023-02-18T03:59:11;8.93;;;2.27;;
17648;SDS011;8943;51.110;-4.158;2023-02-18T04:01:39;13.53;;;2.40;;
17648;SDS011;8943;51.110;-4.158;2023-02-18T04:04:07;11.83;;;2.23;;
17648;SDS011;8943;51.110;-4.158;2023-02-18T04:06:35;8.77;;;1.87;;
17648;SDS011;8943;51.110;-4.158;2023-02-18T04:09:05;16.90;;;2.93;;
17648;SDS011;8943;51.110;-4.158;2023-02-18T04:11:36;11.43;;;1.90;;
17648;SDS011;8943;51.110;-4.158;2023-02-18T04:14:05;17.30;;;3.17;;
17648;SDS011;8943;51.110;-4.158;2023-02-18T04:16:34;16.80;;;2.80;;
17648;SDS011;8943;51.110;-4.158;2023-02-18T04:19:02;11.10;;;2.50;;
17648;SDS011;8943;51.110;-4.158;2023-02-18T04:21:31;12.10;;;2.37;;
17648;SDS011;8943;51.110;-4.158;2023-02-18T04:23:59;11.10;;;1.90;;
17648;SDS011;8943;51.110;-4.158;2023-02-18T04:26:28;12.50;;;2.93;;
17648;SDS011;8943;51.110;-4.158;2023-02-18T04:28:57;11.40;;;2.70;;
17648;SDS011;8943;51.110;-4.158;2023-02-18T04:31:25;10.13;;;2.03;;
17648;SDS011;8943;51.110;-4.158;2023-02-18T04:33:54;11.30;;;2.20;;
17648;SDS011;8943;51.110;-4.158;2023-02-18T04:36:22;18.40;;;3.37;;
17648;SDS011;8943;51.110;-4.158;2023-02-18T04:38:50;5.10;;;1.60;;
17648;SDS011;8943;51.110;-4.158;2023-02-18T04:41:18;11.87;;;2.57;;
17648;SDS011;8943;51.110;-4.158;2023-02-18T04:43:46;13.03;;;2.03;;
17648;SDS011;8943;51.110;-4.158;2023-02-18T04:46:15;12.90;;;2.17;;
17648;SDS011;8943;51.110;-4.158;2023-02-18T04:48:43;11.20;;;1.90;;
17648;SDS011;8943;51.110;-4.158;2023-02-18T04:51:11;10.07;;;2.30;;
17648;SDS011;8943;51.110;-4.158;2023-02-18T04:53:39;10.50;;;2.37;;
17648;SDS011;8943;51.110;-4.158;2023-02-18T04:56:07;7.37;;;1.40;;
17648;SDS011;8943;51.110;-4.158;2023-02-18T04:58:36;21.10;;;3.07;;
17648;SDS011;8943;51.110;-4.158;2023-02-18T05:01:04;9.20;;;2.80;;
17648;SDS011;8943;51.110;-4.158;2023-02-18T05:03:34;10.33;;;1.90;;
17648;SDS011;8943;51.110;-4.158;2023-02-18T05:06:02;17.00;;;2.67;;
17648;SDS011;8943;51.110;-4.158;2023-02-18T05:08:30;10.93;;;2.27;;
17648;SDS011;8943;51.110;-4.158;2023-02-18T05:10:58;8.37;;;2.17;;
17648;SDS011;8943;51.110;-4.158;2023-02-18T05:13:26;5.97;;;1.23;;
17648;SDS011;8943;51.110;-4.158;2023-02-18T05:15:54;11.60;;;3.07;;
17648;SDS011;8943;51.110;-4.158;2023-02-18T05:18:22;18.03;;;2.70;;
17648;SDS011;8943;51.110;-4.158;2023-02-18T05:20:51;10.37;;;1.73;;
17648;SDS011;8943;51.110;-4.158;2023-02-18T05:23:19;7.97;;;2.37;;
17648;SDS011;8943;51.110;-4.158;2023-02-18T05:25:47;15.10;;;3.00;;
17648;SDS011;8943;51.110;-4.158;2023-02-18T05:28:15;18.63;;;2.70;;
17648;SDS011;8943;51.110;-4.158;2023-02-18T05:30:44;27.97;;;3.27;;
17648;SDS011;8943;51.110;-4.158;2023-02-18T05:33:12;9.80;;;2.07;;
17648;SDS011;8943;51.110;-4.158;2023-02-18T05:35:40;11.50;;;2.10;;
17648;SDS011;8943;51.110;-4.158;2023-02-18T05:38:10;16.93;;;2.63;;
17648;SDS011;8943;51.110;-4.158;2023-02-18T05:40:38;12.97;;;2.23;;
17648;SDS011;8943;51.110;-4.158;2023-02-18T05:43:06;13.97;;;2.63;;
17648;SDS011;8943;51.110;-4.158;2023-02-18T05:45:34;11.03;;;2.20;;
17648;SDS011;8943;51.110;-4.158;2023-02-18T05:48:02;11.30;;;1.87;;
17648;SDS011;8943;51.110;-4.158;2023-02-18T05:50:31;14.97;;;2.47;;
17648;SDS011;8943;51.110;-4.158;2023-02-18T05:52:59;22.20;;;3.83;;
17648;SDS011;8943;51.110;-4.158;2023-02-18T05:55:28;20.47;;;3.93;;
17648;SDS011;8943;51.110;-4.158;2023-02-18T05:57:56;19.20;;;2.63;;
17648;SDS011;8943;51.110;-4.158;2023-02-18T06:00:24;7.67;;;2.23;;
17648;SDS011;8943;51.110;-4.158;2023-02-18T06:02:55;16.67;;;3.00;;
17648;SDS011;8943;51.110;-4.158;2023-02-18T06:05:23;20.53;;;3.10;;
17648;SDS011;8943;51.110;-4.158;2023-02-18T06:07:52;17.60;;;2.50;;
17648;SDS011;8943;51.110;-4.158;2023-02-18T06:10:22;12.47;;;2.90;;
17648;SDS011;8943;51.110;-4.158;2023-02-18T06:12:52;24.80;;;3.73;;
17648;SDS011;8943;51.110;-4.158;2023-02-18T06:15:20;16.87;;;4.23;;
17648;SDS011;8943;51.110;-4.158;2023-02-18T06:17:48;23.50;;;4.27;;
17648;SDS011;8943;51.110;-4.158;2023-02-18T06:20:16;23.43;;;4.33;;
17648;SDS011;8943;51.110;-4.158;2023-02-18T06:22:45;29.73;;;5.07;;
17648;SDS011;8943;51.110;-4.158;2023-02-18T06:25:13;16.90;;;3.50;;
17648;SDS011;8943;51.110;-4.158;2023-02-18T06:27:41;11.47;;;2.70;;
17648;SDS011;8943;51.110;-4.158;2023-02-18T06:30:11;21.07;;;3.40;;
17648;SDS011;8943;51.110;-4.158;2023-02-18T06:32:39;19.57;;;3.93;;
17648;SDS011;8943;51.110;-4.158;2023-02-18T06:35:08;19.90;;;4.00;;
17648;SDS011;8943;51.110;-4.158;2023-02-18T06:37:36;21.93;;;3.23;;
17648;SDS011;8943;51.110;-4.158;2023-02-18T06:40:04;18.57;;;3.43;;
17648;SDS011;8943;51.110;-4.158;2023-02-18T06:42:33;20.20;;;4.00;;
17648;SDS011;8943;51.110;-4.158;2023-02-18T06:45:02;28.97;;;4.77;;
17648;SDS011;8943;51.110;-4.158;2023-02-18T06:47:33;31.70;;;4.13;;
17648;SDS011;8943;51.110;-4.158;2023-02-18T06:50:01;20.87;;;3.83;;
17648;SDS011;8943;51.110;-4.158;2023-02-18T06:52:30;24.20;;;4.00;;
17648;SDS011;8943;51.110;-4.158;2023-02-18T06:54:58;19.67;;;3.70;;
17648;SDS011;8943;51.110;-4.158;2023-02-18T06:57:26;26.00;;;3.80;;
17648;SDS011;8943;51.110;-4.158;2023-02-18T06:59:57;23.50;;;4.17;;
17648;SDS011;8943;51.110;-4.158;2023-02-18T07:02:27;30.30;;;5.97;;
17648;SDS011;8943;51.110;-4.158;2023-02-18T07:04:56;18.50;;;3.60;;
17648;SDS011;8943;51.110;-4.158;2023-02-18T07:07:24;27.87;;;5.10;;
17648;SDS011;8943;51.110;-4.158;2023-02-18T07:09:52;20.90;;;3.20;;
17648;SDS011;8943;51.110;-4.158;2023-02-18T07:12:20;21.50;;;4.23;;
17648;SDS011;8943;51.110;-4.158;2023-02-18T07:14:48;29.30;;;5.20;;
17648;SDS011;8943;51.110;-4.158;2023-02-18T07:17:16;23.10;;;4.67;;
17648;SDS011;8943;51.110;-4.158;2023-02-18T07:19:45;17.53;;;3.87;;
17648;SDS011;8943;51.110;-4.158;2023-02-18T07:22:14;20.17;;;3.63;;
17648;SDS011;8943;51.110;-4.158;2023-02-18T07:24:43;32.13;;;5.33;;
17648;SDS011;8943;51.110;-4.158;2023-02-18T07:27:11;36.30;;;5.27;;
17648;SDS011;8943;51.110;-4.158;2023-02-18T07:29:39;40.20;;;5.83;;
17648;SDS011;8943;51.110;-4.158;2023-02-18T07:32:08;14.13;;;3.93;;
17648;SDS011;8943;51.110;-4.158;2023-02-18T07:34:38;21.83;;;3.00;;
17648;SDS011;8943;51.110;-4.158;2023-02-18T07:37:06;15.00;;;3.10;;
17648;SDS011;8943;51.110;-4.158;2023-02-18T07:39:38;37.30;;;5.27;;
17648;SDS011;8943;51.110;-4.158;2023-02-18T07:42:07;22.37;;;4.40;;
17648;SDS011;8943;51.110;-4.158;2023-02-18T07:44:35;21.60;;;4.67;;
17648;SDS011;8943;51.110;-4.158;2023-02-18T07:47:05;19.30;;;3.90;;
17648;SDS011;8943;51.110;-4.158;2023-02-18T07:49:34;24.27;;;4.83;;
17648;SDS011;8943;51.110;-4.158;2023-02-18T07:52:03;27.33;;;5.60;;
17648;SDS011;8943;51.110;-4.158;2023-02-18T07:54:31;30.30;;;5.60;;
17648;SDS011;8943;51.110;-4.158;2023-02-18T07:57:00;25.23;;;6.00;;
17648;SDS011;8943;51.110;-4.158;2023-02-18T07:59:29;22.50;;;4.53;;
17648;SDS011;8943;51.110;-4.158;2023-02-18T08:01:57;27.10;;;4.63;;
17648;SDS011;8943;51.110;-4.158;2023-02-18T08:04:25;29.57;;;4.63;;
17648;SDS011;8943;51.110;-4.158;2023-02-18T08:06:53;26.50;;;4.20;;
17648;SDS011;8943;51.110;-4.158;2023-02-18T08:09:21;17.60;;;4.63;;
17648;SDS011;8943;51.110;-4.158;2023-02-18T08:11:50;23.07;;;5.13;;
17648;SDS011;8943;51.110;-4.158;2023-02-18T08:14:19;29.20;;;4.40;;
17648;SDS011;8943;51.110;-4.158;2023-02-18T08:16:47;11.37;;;2.80;;
17648;SDS011;8943;51.110;-4.158;2023-02-18T08:19:16;18.20;;;3.93;;
17648;SDS011;8943;51.110;-4.158;2023-02-18T08:21:44;22.43;;;5.07;;
17648;SDS011;8943;51.110;-4.158;2023-02-18T08:24:13;26.90;;;4.63;;
17648;SDS011;8943;51.110;-4.158;2023-02-18T08:26:41;21.33;;;4.17;;
17648;SDS011;8943;51.110;-4.158;2023-02-18T08:29:27;19.17;;;4.03;;
17648;SDS011;8943;51.110;-4.158;2023-02-18T08:31:56;26.80;;;4.23;;
17648;SDS011;8943;51.110;-4.158;2023-02-18T08:34:25;31.53;;;5.57;;
17648;SDS011;8943;51.110;-4.158;2023-02-18T08:36:53;40.80;;;5.63;;
17648;SDS011;8943;51.110;-4.158;2023-02-18T08:39:21;18.93;;;3.83;;
17648;SDS011;8943;51.110;-4.158;2023-02-18T08:41:49;32.50;;;4.90;;
17648;SDS011;8943;51.110;-4.158;2023-02-18T08:44:17;30.90;;;4.73;;
17648;SDS011;8943;51.110;-4.158;2023-02-18T08:46:48;27.53;;;5.33;;
17648;SDS011;8943;51.110;-4.158;2023-02-18T08:49:17;18.90;;;3.97;;
17648;SDS011;8943;51.110;-4.158;2023-02-18T08:51:46;24.23;;;3.60;;
17648;SDS011;8943;51.110;-4.158;2023-02-18T08:54:14;21.33;;;4.13;;
17648;SDS011;8943;51.110;-4.158;2023-02-18T08:56:43;14.43;;;2.83;;
17648;SDS011;8943;51.110;-4.158;2023-02-18T08:59:11;20.40;;;3.33;;
17648;SDS011;8943;51.110;-4.158;2023-02-18T09:01:40;20.53;;;4.30;;
17648;SDS011;8943;51.110;-4.158;2023-02-18T09:04:09;20.57;;;3.93;;
17648;SDS011;8943;51.110;-4.158;2023-02-18T09:06:37;31.77;;;4.97;;
17648;SDS011;8943;51.110;-4.158;2023-02-18T09:09:06;17.13;;;3.40;;
17648;SDS011;8943;51.110;-4.158;2023-02-18T09:11:36;27.00;;;4.83;;
17648;SDS011;8943;51.110;-4.158;2023-02-18T09:14:07;22.20;;;4.97;;
17648;SDS011;8943;51.110;-4.158;2023-02-18T09:17:04;33.53;;;5.60;;
17648;SDS011;8943;51.110;-4.158;2023-02-18T09:19:35;42.30;;;6.30;;
17648;SDS011;8943;51.110;-4.158;2023-02-18T09:22:05;28.83;;;4.87;;
17648;SDS011;8943;51.110;-4.158;2023-02-18T09:24:35;37.30;;;5.90;;
17648;SDS011;8943;51.110;-4.158;2023-02-18T09:27:05;33.77;;;5.67;;
17648;SDS011;8943;51.110;-4.158;2023-02-18T09:29:37;28.30;;;5.10;;
17648;SDS011;8943;51.110;-4.158;2023-02-18T09:32:06;30.70;;;5.63;;
17648;SDS011;8943;51.110;-4.158;2023-02-18T09:34:46;17.87;;;3.50;;
17648;SDS011;8943;51.110;-4.158;2023-02-18T09:37:14;18.97;;;4.33;;
17648;SDS011;8943;51.110;-4.158;2023-02-18T09:39:43;23.60;;;5.33;;
17648;SDS011;8943;51.110;-4.158;2023-02-18T09:42:12;15.90;;;4.07;;
17648;SDS011;8943;51.110;-4.158;2023-02-18T09:44:44;18.23;;;3.67;;
17648;SDS011;8943;51.110;-4.158;2023-02-18T09:47:18;19.97;;;4.40;;
17648;SDS011;8943;51.110;-4.158;2023-02-18T09:49:53;30.30;;;4.83;;
17648;SDS011;8943;51.110;-4.158;2023-02-18T09:52:27;43.57;;;5.63;;
17648;SDS011;8943;51.110;-4.158;2023-02-18T09:54:58;11.97;;;2.57;;
17648;SDS011;8943;51.110;-4.158;2023-02-18T09:57:27;22.30;;;4.13;;
17648;SDS011;8943;51.110;-4.158;2023-02-18T10:00:02;11.03;;;2.37;;
17648;SDS011;8943;51.110;-4.158;2023-02-18T10:02:34;28.10;;;4.03;;
17648;SDS011;8943;51.110;-4.158;2023-02-18T10:05:06;15.17;;;3.80;;
17648;SDS011;8943;51.110;-4.158;2023-02-18T10:07:40;12.03;;;3.50;;
17648;SDS011;8943;51.110;-4.158;2023-02-18T10:10:15;11.33;;;2.27;;
17648;SDS011;8943;51.110;-4.158;2023-02-18T10:12:47;23.90;;;4.00;;
17648;SDS011;8943;51.110;-4.158;2023-02-18T10:15:19;18.27;;;4.63;;
17648;SDS011;8943;51.110;-4.158;2023-02-18T10:17:50;19.00;;;4.07;;
17648;SDS011;8943;51.110;-4.158;2023-02-18T10:20:21;11.30;;;2.50;;
17648;SDS011;8943;51.110;-4.158;2023-02-18T10:22:52;7.87;;;2.70;;
17648;SDS011;8943;51.110;-4.158;2023-02-18T10:25:22;11.73;;;2.63;;
17648;SDS011;8943;51.110;-4.158;2023-02-18T10:27:52;13.43;;;3.00;;
17648;SDS011;8943;51.110;-4.158;2023-02-18T10:30:22;17.30;;;3.30;;
17648;SDS011;8943;51.110;-4.158;2023-02-18T10:32:54;16.70;;;3.43;;
17648;SDS011;8943;51.110;-4.158;2023-02-18T10:35:30;12.63;;;2.40;;
17648;SDS011;8943;51.110;-4.158;2023-02-18T10:38:05;15.77;;;2.93;;
17648;SDS011;8943;51.110;-4.158;2023-02-18T10:40:43;17.70;;;3.47;;
17648;SDS011;8943;51.110;-4.158;2023-02-18T10:43:21;16.07;;;2.73;;
17648;SDS011;8943;51.110;-4.158;2023-02-18T10:45:55;8.17;;;2.03;;
17648;SDS011;8943;51.110;-4.158;2023-02-18T10:48:36;13.43;;;2.63;;
17648;SDS011;8943;51.110;-4.158;2023-02-18T10:51:17;8.30;;;2.43;;
17648;SDS011;8943;51.110;-4.158;2023-02-18T10:53:50;11.37;;;2.10;;
17648;SDS011;8943;51.110;-4.158;2023-02-18T10:56:31;22.00;;;3.43;;
17648;SDS011;8943;51.110;-4.158;2023-02-18T10:59:30;12.77;;;2.73;;
17648;SDS011;8943;51.110;-4.158;2023-02-18T11:02:00;12.23;;;2.87;;
17648;SDS011;8943;51.110;-4.158;2023-02-18T11:04:33;14.87;;;2.20;;
17648;SDS011;8943;51.110;-4.158;2023-02-18T11:07:09;20.87;;;3.50;;
17648;SDS011;8943;51.110;-4.158;2023-02-18T11:09:41;21.63;;;3.27;;
17648;SDS011;8943;51.110;-4.158;2023-02-18T11:12:16;9.87;;;2.07;;
17648;SDS011;8943;51.110;-4.158;2023-02-18T11:14:48;13.87;;;2.70;;
17648;SDS011;8943;51.110;-4.158;2023-02-18T11:17:30;8.53;;;1.87;;
17648;SDS011;8943;51.110;-4.158;2023-02-18T11:20:00;5.67;;;1.50;;
17648;SDS011;8943;51.110;-4.158;2023-02-18T11:22:46;7.73;;;1.77;;
17648;SDS011;8943;51.110;-4.158;2023-02-18T11:25:18;11.70;;;2.40;;
17648;SDS011;8943;51.110;-4.158;2023-02-18T11:27:49;8.20;;;1.93;;
17648;SDS011;8943;51.110;-4.158;2023-02-18T11:30:20;9.30;;;1.93;;
17648;SDS011;8943;51.110;-4.158;2023-02-18T11:33:02;9.07;;;1.80;;
17648;SDS011;8943;51.110;-4.158;2023-02-18T11:38:51;7.90;;;1.97;;
17648;SDS011;8943;51.110;-4.158;2023-02-18T11:41:27;11.73;;;2.40;;
17648;SDS011;8943;51.110;-4.158;2023-02-18T11:43:58;10.80;;;1.87;;
17648;SDS011;8943;51.110;-4.158;2023-02-18T11:46:28;8.57;;;3.00;;
17648;SDS011;8943;51.110;-4.158;2023-02-18T11:48:56;8.20;;;1.90;;
17648;SDS011;8943;51.110;-4.158;2023-02-18T11:51:48;8.30;;;2.50;;
17648;SDS011;8943;51.110;-4.158;2023-02-18T11:54:21;14.73;;;3.00;;
17648;SDS011;8943;51.110;-4.158;2023-02-18T11:56:55;10.33;;;2.03;;
17648;SDS011;8943;51.110;-4.158;2023-02-18T11:59:25;9.73;;;2.43;;
17648;SDS011;8943;51.110;-4.158;2023-02-18T12:01:56;16.90;;;2.63;;
17648;SDS011;8943;51.110;-4.158;2023-02-18T12:04:35;17.53;;;3.00;;
17648;SDS011;8943;51.110;-4.158;2023-02-18T12:07:11;8.80;;;2.30;;
17648;SDS011;8943;51.110;-4.158;2023-02-18T12:09:46;14.17;;;2.80;;
17648;SDS011;8943;51.110;-4.158;2023-02-18T12:12:17;8.37;;;2.30;;
17648;SDS011;8943;51.110;-4.158;2023-02-18T12:14:52;12.77;;;2.57;;
17648;SDS011;8943;51.110;-4.158;2023-02-18T12:20:29;17.77;;;3.03;;
17648;SDS011;8943;51.110;-4.158;2023-02-18T12:23:10;16.50;;;2.40;;
17648;SDS011;8943;51.110;-4.158;2023-02-18T12:25:46;8.73;;;1.90;;
17648;SDS011;8943;51.110;-4.158;2023-02-18T12:28:28;13.10;;;2.97;;
17648;SDS011;8943;51.110;-4.158;2023-02-18T12:31:09;10.20;;;2.63;;
17648;SDS011;8943;51.110;-4.158;2023-02-18T12:33:50;6.90;;;1.83;;
17648;SDS011;8943;51.110;-4.158;2023-02-18T12:36:32;11.97;;;2.80;;
17648;SDS011;8943;51.110;-4.158;2023-02-18T12:39:14;7.63;;;2.30;;
17648;SDS011;8943;51.110;-4.158;2023-02-18T12:42:05;11.77;;;2.10;;
17648;SDS011;8943;51.110;-4.158;2023-02-18T12:44:43;9.87;;;2.23;;
17648;SDS011;8943;51.110;-4.158;2023-02-18T12:47:35;16.23;;;2.60;;
17648;SDS011;8943;51.110;-4.158;2023-02-18T12:50:21;8.47;;;2.40;;
17648;SDS011;8943;51.110;-4.158;2023-02-18T12:53:01;5.00;;;1.77;;
17648;SDS011;8943;51.110;-4.158;2023-02-18T12:55:46;9.53;;;2.23;;
17648;SDS011;8943;51.110;-4.158;2023-02-18T12:58:30;15.83;;;2.40;;
17648;SDS011;8943;51.110;-4.158;2023-02-18T13:01:15;10.17;;;2.67;;
17648;SDS011;8943;51.110;-4.158;2023-02-18T13:03:56;12.50;;;2.57;;
17648;SDS011;8943;51.110;-4.158;2023-02-18T13:09:59;11.83;;;3.20;;
17648;SDS011;8943;51.110;-4.158;2023-02-18T13:12:47;13.40;;;3.10;;
17648;SDS011;8943;51.110;-4.158;2023-02-18T13:15:27;9.43;;;2.77;;
17648;SDS011;8943;51.110;-4.158;2023-02-18T13:18:04;7.77;;;2.10;;
17648;SDS011;8943;51.110;-4.158;2023-02-18T13:20:38;5.37;;;1.60;;
17648;SDS011;8943;51.110;-4.158;2023-02-18T13:23:12;11.07;;;1.70;;
17648;SDS011;8943;51.110;-4.158;2023-02-18T13:25:45;7.03;;;1.77;;
17648;SDS011;8943;51.110;-4.158;2023-02-18T13:28:17;7.73;;;1.90;;
17648;SDS011;8943;51.110;-4.158;2023-02-18T13:30:56;8.73;;;2.07;;
17648;SDS011;8943;51.110;-4.158;2023-02-18T13:33:33;7.20;;;1.97;;
17648;SDS011;8943;51.110;-4.158;2023-02-18T13:36:08;5.73;;;1.63;;
17648;SDS011;8943;51.110;-4.158;2023-02-18T13:38:55;13.93;;;2.63;;
17648;SDS011;8943;51.110;-4.158;2023-02-18T13:41:32;3.97;;;1.17;;
17648;SDS011;8943;51.110;-4.158;2023-02-18T13:44:06;3.00;;;1.10;;
17648;SDS011;8943;51.110;-4.158;2023-02-18T13:49:36;5.60;;;1.03;;
17648;SDS011;8943;51.110;-4.158;2023-02-18T13:52:14;4.27;;;1.13;;
17648;SDS011;8943;51.110;-4.158;2023-02-18T13:54:46;0.93;;;0.30;;
17648;SDS011;8943;51.110;-4.158;2023-02-18T13:57:18;1.50;;;0.47;;
17648;SDS011;8943;51.110;-4.158;2023-02-18T13:59:49;3.83;;;0.90;;
17648;SDS011;8943;51.110;-4.158;2023-02-18T14:02:30;2.30;;;1.00;;
17648;SDS011;8943;51.110;-4.158;2023-02-18T14:05:21;1.90;;;0.53;;
17648;SDS011;8943;51.110;-4.158;2023-02-18T14:08:10;4.87;;;1.20;;
17648;SDS011;8943;51.110;-4.158;2023-02-18T14:10:39;7.90;;;1.50;;
17648;SDS011;8943;51.110;-4.158;2023-02-18T14:13:19;5.67;;;1.60;;
17648;SDS011;8943;51.110;-4.158;2023-02-18T14:15:55;9.37;;;1.70;;
17648;SDS011;8943;51.110;-4.158;2023-02-18T14:18:30;10.87;;;2.03;;
17648;SDS011;8943;51.110;-4.158;2023-02-18T14:21:04;7.57;;;1.70;;
17648;SDS011;8943;51.110;-4.158;2023-02-18T14:23:56;1.40;;;0.63;;
17648;SDS011;8943;51.110;-4.158;2023-02-18T14:26:28;0.00;;;0.00;;
17648;SDS011;8943;51.110;-4.158;2023-02-18T14:29:03;0.00;;;0.00;;
17648;SDS011;8943;51.110;-4.158;2023-02-18T14:31:47;7.33;;;1.37;;
17648;SDS011;8943;51.110;-4.158;2023-02-18T14:38:01;18.63;;;3.43;;
17648;SDS011;8943;51.110;-4.158;2023-02-18T14:40:55;17.80;;;3.17;;
17648;SDS011;8943;51.110;-4.158;2023-02-18T14:43:43;20.33;;;3.53;;
17648;SDS011;8943;51.110;-4.158;2023-02-18T14:46:29;11.53;;;2.37;;
17648;SDS011;8943;51.110;-4.158;2023-02-18T14:49:16;20.33;;;2.97;;
17648;SDS011;8943;51.110;-4.158;2023-02-18T14:51:58;11.57;;;2.10;;
17648;SDS011;8943;51.110;-4.158;2023-02-18T14:54:28;9.63;;;2.80;;
17648;SDS011;8943;51.110;-4.158;2023-02-18T14:56:58;18.50;;;2.90;;
17648;SDS011;8943;51.110;-4.158;2023-02-18T14:59:30;18.77;;;3.70;;
17648;SDS011;8943;51.110;-4.158;2023-02-18T15:02:02;17.33;;;3.90;;
17648;SDS011;8943;51.110;-4.158;2023-02-18T15:04:30;17.97;;;3.17;;
17648;SDS011;8943;51.110;-4.158;2023-02-18T15:06:59;20.33;;;3.27;;
17648;SDS011;8943;51.110;-4.158;2023-02-18T15:09:30;16.97;;;3.90;;
17648;SDS011;8943;51.110;-4.158;2023-02-18T15:12:01;12.73;;;3.00;;
17648;SDS011;8943;51.110;-4.158;2023-02-18T15:14:34;15.90;;;3.07;;
17648;SDS011;8943;51.110;-4.158;2023-02-18T15:17:04;21.97;;;3.97;;
17648;SDS011;8943;51.110;-4.158;2023-02-18T15:19:35;19.63;;;3.97;;
17648;SDS011;8943;51.110;-4.158;2023-02-18T15:22:12;18.13;;;3.70;;
17648;SDS011;8943;51.110;-4.158;2023-02-18T15:24:43;23.57;;;3.23;;
17648;SDS011;8943;51.110;-4.158;2023-02-18T15:27:13;24.53;;;4.30;;
17648;SDS011;8943;51.110;-4.158;2023-02-18T15:29:43;19.73;;;3.67;;
17648;SDS011;8943;51.110;-4.158;2023-02-18T15:32:16;23.40;;;3.53;;